Big River, Canada
Current Conditions -  °F | °C
As of 7:00 AM on Sunday 21 Dec 2014 (Local Time) from CYLJ Reporting Station
Haze Haze  
Wind Chill:   Ceiling: 1500
Heat Index: 18°   Visibility: 4mi
Dew Point: 16°   Wind: 10mph
Humidity: 93%   Direction: 70°ENE
Pressure: 29.42"   Gusts: NA
Location:  53.83°N, 107.03°W
Report Text: CYLJ 211300Z 07009KT 4SM BR OVC015 M08/M09 A2942 RMK SC8 SLP994
Loading
Personal Weather Stations






























Interactive Weather Map New forecast layout! Learn more

10-Day Weather Forecast

Advertisements
Track Severe Weather on mobile